createdAt,value
2017-04-08T00:00:19.373Z,26.34
2017-04-08T00:01:17.904Z,28.61
2017-04-08T00:02:15.717Z,31.17
2017-04-08T00:03:13.476Z,27.24
2017-04-08T00:04:11.268Z,30.99
2017-04-08T00:05:09.111Z,27.23
2017-04-08T00:06:06.937Z,28.37
2017-04-08T00:07:04.737Z,28.49
2017-04-08T00:08:03.221Z,26.66
2017-04-08T00:09:01.106Z,26.76
2017-04-08T00:09:59.740Z,26.54
2017-04-08T00:10:57.573Z,32.03
2017-04-08T00:11:55.353Z,27.90
2017-04-08T00:12:53.147Z,28.96
2017-04-08T00:13:50.937Z,27.23
2017-04-08T00:14:48.710Z,27.44
2017-04-08T00:15:46.486Z,41.16
2017-04-08T00:16:44.944Z,29.69
2017-04-08T00:17:42.809Z,26.30
2017-04-08T00:18:41.277Z,29.33
2017-04-08T00:19:39.058Z,27.39
2017-04-08T00:20:37.595Z,25.09
2017-04-08T00:21:35.393Z,28.96
2017-04-08T00:22:33.162Z,25.53
2017-04-08T00:23:30.943Z,25.77
2017-04-08T00:24:28.753Z,34.37
2017-04-08T00:25:26.537Z,28.74
2017-04-08T00:26:24.343Z,28.86
2017-04-08T00:27:22.129Z,31.41
2017-04-08T00:28:19.905Z,26.34
2017-04-08T00:29:17.733Z,28.16
2017-04-08T00:30:15.527Z,27.14
2017-04-08T00:31:13.306Z,29.07
2017-04-08T00:32:11.858Z,32.07
2017-04-08T00:33:09.627Z,28.60
2017-04-08T00:34:07.482Z,26.83
2017-04-08T00:35:05.268Z,30.60
2017-04-08T00:36:03.810Z,34.51
2017-04-08T00:37:02.365Z,28.01
2017-04-08T00:38:00.197Z,28.19
2017-04-08T00:38:57.999Z,26.51
2017-04-08T00:39:56.489Z,28.14
2017-04-08T00:40:54.306Z,26.19
2017-04-08T00:41:52.097Z,30.24
2017-04-08T00:42:49.893Z,26.07
2017-04-08T00:43:47.730Z,27.04
2017-04-08T00:44:45.523Z,27.36
2017-04-08T00:45:43.323Z,29.83
2017-04-08T00:46:41.891Z,28.54
2017-04-08T00:47:40.402Z,28.97
2017-04-08T00:48:38.167Z,31.40
2017-04-08T00:49:36.013Z,33.47
2017-04-08T00:50:33.809Z,25.56
2017-04-08T00:51:32.292Z,29.47
2017-04-08T00:52:30.809Z,29.96
2017-04-08T00:53:28.586Z,28.57
2017-04-08T00:54:27.080Z,26.99
2017-04-08T00:55:25.570Z,29.44
2017-04-08T00:56:24.101Z,34.19
2017-04-08T00:57:22.606Z,29.73
2017-04-08T00:58:21.174Z,29.26
2017-04-08T00:59:19.703Z,29.63
2017-04-08T01:00:22.133Z,30.74
2017-04-08T01:01:26.485Z,27.97
2017-04-08T01:02:24.253Z,31.79
2017-04-08T01:03:22.098Z,28.36
2017-04-08T01:04:19.902Z,27.91
2017-04-08T01:05:18.421Z,27.67
2017-04-08T01:06:16.277Z,26.60
2017-04-08T01:07:14.051Z,26.67
2017-04-08T01:08:11.841Z,26.76
2017-04-08T01:09:09.694Z,28.56
2017-04-08T01:10:08.206Z,31.81
2017-04-08T01:11:05.989Z,28.14
2017-04-08T01:12:03.777Z,31.14
2017-04-08T01:13:02.293Z,31.11
2017-04-08T01:14:00.061Z,28.03
2017-04-08T01:14:57.861Z,27.84
2017-04-08T01:15:55.646Z,29.31
2017-04-08T01:16:53.435Z,32.07
2017-04-08T01:17:51.948Z,30.07
2017-04-08T01:18:49.711Z,29.76
2017-04-08T01:19:47.493Z,31.00
2017-04-08T01:20:45.289Z,37.93
2017-04-08T01:21:43.821Z,35.83
2017-04-08T01:22:41.677Z,35.61
2017-04-08T01:23:40.141Z,29.57
2017-04-08T01:24:37.944Z,28.89
2017-04-08T01:25:35.753Z,34.66
2017-04-08T01:26:33.533Z,30.14
2017-04-08T01:27:31.329Z,31.99
2017-04-08T01:28:29.169Z,30.11
2017-04-08T01:29:26.941Z,29.91
2017-04-08T01:30:24.777Z,32.27
2017-04-08T01:31:23.297Z,29.77
2017-04-08T01:32:21.177Z,30.44
2017-04-08T01:33:19.680Z,34.49
2017-04-08T01:34:18.195Z,29.76
2017-04-08T01:35:16.007Z,29.61
2017-04-08T01:36:14.581Z,30.77
2017-04-08T01:37:13.105Z,30.31
2017-04-08T01:38:10.913Z,31.57
2017-04-08T01:39:09.432Z,32.00
2017-04-08T01:40:07.897Z,32.13
2017-04-08T01:41:05.674Z,29.51
2017-04-08T01:42:04.168Z,32.87
2017-04-08T01:43:02.717Z,32.73
2017-04-08T01:44:00.504Z,36.41
2017-04-08T01:44:59.033Z,29.23
2017-04-08T01:45:57.492Z,28.99
2017-04-08T01:46:55.292Z,31.57
2017-04-08T01:47:53.074Z,31.86
2017-04-08T01:48:51.411Z,32.40
2017-04-08T01:49:49.193Z,36.81
2017-04-08T01:50:46.985Z,35.80
2017-04-08T01:51:44.779Z,33.11
2017-04-08T01:52:43.281Z,31.57
2017-04-08T01:53:41.099Z,34.34
2017-04-08T01:54:39.641Z,34.97
2017-04-08T01:55:37.417Z,31.97
2017-04-08T01:56:35.218Z,29.50
2017-04-08T01:57:33.037Z,31.36
2017-04-08T01:58:31.585Z,31.09
2017-04-08T01:59:29.374Z,36.43
2017-04-08T02:00:27.225Z,33.47
2017-04-08T02:01:25.089Z,34.81
2017-04-08T02:02:23.005Z,29.14
2017-04-08T02:03:20.801Z,36.81
2017-04-08T02:04:18.617Z,29.03
2017-04-08T02:05:16.466Z,30.03
2017-04-08T02:06:14.281Z,30.03
2017-04-08T02:07:12.157Z,30.40
2017-04-08T02:08:10.009Z,30.14
2017-04-08T02:09:07.832Z,31.76
2017-04-08T02:10:06.422Z,32.57
2017-04-08T02:11:04.222Z,31.24
2017-04-08T02:12:02.057Z,33.80
2017-04-08T02:12:59.874Z,31.61
2017-04-08T02:13:57.689Z,32.00
2017-04-08T02:14:55.493Z,32.13
2017-04-08T02:15:53.321Z,33.40
2017-04-08T02:16:51.133Z,30.49
2017-04-08T02:17:48.955Z,32.00
2017-04-08T02:18:46.745Z,30.29
2017-04-08T02:19:44.602Z,28.84
2017-04-08T02:20:42.399Z,31.13
2017-04-08T02:21:40.861Z,28.74
2017-04-08T02:22:38.673Z,29.60
2017-04-08T02:23:36.478Z,30.24
2017-04-08T02:24:34.952Z,31.80
2017-04-08T02:25:32.749Z,29.91
2017-04-08T02:26:30.580Z,28.64
2017-04-08T02:27:28.358Z,29.01
2017-04-08T02:28:26.197Z,32.79
2017-04-08T02:29:24.769Z,29.50
2017-04-08T02:30:23.301Z,30.63
2017-04-08T02:31:21.094Z,29.30
2017-04-08T02:32:19.637Z,28.54
2017-04-08T02:33:17.437Z,28.19
2017-04-08T02:34:15.261Z,32.44
2017-04-08T02:35:13.176Z,26.39
2017-04-08T02:36:11.473Z,29.61
2017-04-08T02:37:09.265Z,27.17
2017-04-08T02:38:07.095Z,29.94
2017-04-08T02:39:05.670Z,30.23
2017-04-08T02:40:03.466Z,29.47
2017-04-08T02:41:01.302Z,29.93
2017-04-08T02:41:59.137Z,30.87
2017-04-08T02:42:56.966Z,33.44
2017-04-08T02:43:54.769Z,31.29
2017-04-08T02:44:52.565Z,36.04
2017-04-08T02:45:50.377Z,31.04
2017-04-08T02:46:48.189Z,27.46
2017-04-08T02:47:45.985Z,28.53
2017-04-08T02:48:43.807Z,29.69
2017-04-08T02:49:41.596Z,32.99
2017-04-08T02:50:39.377Z,29.13
2017-04-08T02:51:37.290Z,29.19
2017-04-08T02:52:35.121Z,32.33
2017-04-08T02:53:32.952Z,36.43
2017-04-08T02:54:30.777Z,32.17
2017-04-08T02:55:27.857Z,39.33
2017-04-08T02:56:25.673Z,32.66
2017-04-08T02:57:23.550Z,33.87
2017-04-08T02:58:21.357Z,32.69
2017-04-08T02:59:19.141Z,34.21
2017-04-08T03:00:16.994Z,37.09
2017-04-08T03:01:14.935Z,33.74
2017-04-08T03:02:12.733Z,32.03
2017-04-08T03:03:10.517Z,39.14
2017-04-08T03:04:08.315Z,34.90
2017-04-08T03:05:06.101Z,33.97
2017-04-08T03:06:03.857Z,33.64
2017-04-08T03:07:01.655Z,34.89
2017-04-08T03:08:00.186Z,32.06
2017-04-08T03:08:57.977Z,39.70
2017-04-08T03:09:55.845Z,34.16
2017-04-08T03:10:54.382Z,37.09
2017-04-08T03:11:52.190Z,39.50
2017-04-08T03:12:49.985Z,34.89
2017-04-08T03:13:47.766Z,35.44
2017-04-08T03:14:46.208Z,35.14
2017-04-08T03:15:44.034Z,36.64
2017-04-08T03:16:41.825Z,37.06
2017-04-08T03:17:39.625Z,35.60
2017-04-08T03:18:37.452Z,34.86
2017-04-08T03:19:35.247Z,33.91
2017-04-08T03:20:33.044Z,37.76
2017-04-08T03:21:30.815Z,35.71
2017-04-08T03:22:29.261Z,44.26
2017-04-08T03:23:27.053Z,36.50
2017-04-08T03:24:25.577Z,34.87
2017-04-08T03:25:23.353Z,37.59
2017-04-08T03:26:21.165Z,34.36
2017-04-08T03:27:18.942Z,37.89
2017-04-08T03:28:16.729Z,37.29
2017-04-08T03:29:15.181Z,36.63
2017-04-08T03:30:12.968Z,36.44
2017-04-08T03:31:11.487Z,40.67
2017-04-08T03:32:09.265Z,39.11
2017-04-08T03:33:07.059Z,40.13
2017-04-08T03:34:05.605Z,39.99
2017-04-08T03:35:03.404Z,36.20
2017-04-08T03:36:01.206Z,43.46
2017-04-08T03:36:58.980Z,40.43
2017-04-08T03:37:57.424Z,39.09
2017-04-08T03:38:55.236Z,42.31
2017-04-08T03:39:53.033Z,36.61
2017-04-08T03:40:50.788Z,40.71
2017-04-08T03:41:48.573Z,40.03
2017-04-08T03:42:47.101Z,36.09
2017-04-08T03:43:44.905Z,35.40
2017-04-08T03:44:42.718Z,39.51
2017-04-08T03:45:40.529Z,39.94
2017-04-08T03:46:39.061Z,36.16
2017-04-08T03:47:36.857Z,37.86
2017-04-08T03:48:35.385Z,33.30
2017-04-08T03:49:33.181Z,36.01
2017-04-08T03:50:31.708Z,35.20
2017-04-08T03:51:29.514Z,37.76
2017-04-08T03:52:27.285Z,40.06
2017-04-08T03:53:25.066Z,33.90
2017-04-08T03:54:22.850Z,35.51
2017-04-08T03:55:20.637Z,39.67
2017-04-08T03:56:18.421Z,37.37
2017-04-08T03:57:16.226Z,37.44
2017-04-08T03:58:14.068Z,36.53
2017-04-08T03:59:11.870Z,39.96
2017-04-08T04:00:09.683Z,35.51
2017-04-08T04:01:08.137Z,40.31
2017-04-08T04:02:05.953Z,34.51
2017-04-08T04:03:03.766Z,38.41
2017-04-08T04:04:02.314Z,40.47
2017-04-08T04:05:00.141Z,38.54
2017-04-08T04:05:57.917Z,38.91
2017-04-08T04:06:55.746Z,34.07
2017-04-08T04:07:53.533Z,36.56
2017-04-08T04:08:51.317Z,35.89
2017-04-08T04:09:49.115Z,35.76
2017-04-08T04:10:46.923Z,37.13
2017-04-08T04:11:44.733Z,36.51
2017-04-08T04:12:42.577Z,40.71
2017-04-08T04:13:40.378Z,33.17
2017-04-08T04:14:38.156Z,39.34
2017-04-08T04:15:36.722Z,34.10
2017-04-08T04:16:35.252Z,36.56
2017-04-08T04:17:33.048Z,38.21
2017-04-08T04:18:31.605Z,35.84
2017-04-08T04:19:29.405Z,33.26
2017-04-08T04:20:27.205Z,36.24
2017-04-08T04:21:25.034Z,36.81
2017-04-08T04:22:22.822Z,38.40
2017-04-08T04:23:20.640Z,37.80
2017-04-08T04:24:18.449Z,39.44
2017-04-08T04:25:17.105Z,38.13
2017-04-08T04:26:14.881Z,34.44
2017-04-08T04:27:13.417Z,37.36
2017-04-08T04:28:11.253Z,35.31
2017-04-08T04:29:09.065Z,34.57
2017-04-08T04:30:06.894Z,35.74
2017-04-08T04:31:04.698Z,38.39
2017-04-08T04:32:02.477Z,39.96
2017-04-08T04:33:00.309Z,40.00
2017-04-08T04:33:58.130Z,38.37
2017-04-08T04:34:56.600Z,41.21
2017-04-08T04:35:54.410Z,34.36
2017-04-08T04:36:52.210Z,36.10
2017-04-08T04:37:50.693Z,34.94
2017-04-08T04:38:49.213Z,38.36
2017-04-08T04:39:47.021Z,39.94
2017-04-08T04:40:45.572Z,34.56
2017-04-08T04:41:44.114Z,38.64
2017-04-08T04:42:41.897Z,36.11
2017-04-08T04:43:39.720Z,35.94
2017-04-08T04:44:37.540Z,35.27
2017-04-08T04:45:35.348Z,35.81
2017-04-08T04:46:33.165Z,37.01
2017-04-08T04:47:30.974Z,34.74
2017-04-08T04:48:28.761Z,34.84
2017-04-08T04:49:26.555Z,37.13
2017-04-08T04:50:24.345Z,32.46
2017-04-08T04:51:22.801Z,36.71
2017-04-08T04:52:20.617Z,35.63
2017-04-08T04:53:18.426Z,37.04
2017-04-08T04:54:16.888Z,37.34
2017-04-08T04:55:14.676Z,33.84
2017-04-08T04:56:12.485Z,34.31
2017-04-08T04:57:10.281Z,36.86
2017-04-08T04:58:08.085Z,35.76
2017-04-08T04:59:05.853Z,37.53
2017-04-08T05:00:03.641Z,36.53
2017-04-08T05:01:02.173Z,36.33
2017-04-08T05:01:59.977Z,33.56
2017-04-08T05:02:58.512Z,38.40
2017-04-08T05:03:56.305Z,34.90
2017-04-08T05:04:54.840Z,33.83
2017-04-08T05:05:52.630Z,32.39
2017-04-08T05:06:51.160Z,33.47
2017-04-08T05:07:48.942Z,31.69
2017-04-08T05:08:47.468Z,32.80
2017-04-08T05:09:45.254Z,33.60
2017-04-08T05:10:43.037Z,33.01
2017-04-08T05:11:41.577Z,34.06
2017-04-08T05:12:40.123Z,32.39
2017-04-08T05:13:37.932Z,33.14
2017-04-08T05:14:36.453Z,34.47
2017-04-08T05:15:34.253Z,34.57
2017-04-08T05:16:32.767Z,32.97
2017-04-08T05:17:30.541Z,34.81
2017-04-08T05:18:28.304Z,37.21
2017-04-08T05:19:26.101Z,38.23
2017-04-08T05:20:24.627Z,38.40
2017-04-08T05:21:22.493Z,39.40
2017-04-08T05:22:20.266Z,35.76
2017-04-08T05:23:18.774Z,32.63
2017-04-08T05:24:16.553Z,32.77
2017-04-08T05:25:15.365Z,33.40
2017-04-08T05:26:13.828Z,33.54
2017-04-08T05:27:11.625Z,33.03
2017-04-08T05:28:09.385Z,34.94
2017-04-08T05:29:07.149Z,36.36
2017-04-08T05:30:04.917Z,34.87
2017-04-08T05:31:02.710Z,33.23
2017-04-08T05:32:01.221Z,38.36
2017-04-08T05:32:58.977Z,36.60
2017-04-08T05:33:56.763Z,33.84
2017-04-08T05:34:54.537Z,32.41
2017-04-08T05:35:53.009Z,46.01
2017-04-08T05:36:50.773Z,32.80
2017-04-08T05:37:49.287Z,34.76
2017-04-08T05:38:47.074Z,31.71
2017-04-08T05:39:44.888Z,33.83
2017-04-08T05:40:42.673Z,36.44
2017-04-08T05:41:40.437Z,37.84
2017-04-08T05:42:38.209Z,39.50
2017-04-08T05:43:36.662Z,35.29
2017-04-08T05:44:34.442Z,35.03
2017-04-08T05:45:32.961Z,32.20
2017-04-08T05:46:30.743Z,32.07
2017-04-08T05:47:28.550Z,36.36
2017-04-08T05:48:26.344Z,35.61
2017-04-08T05:49:24.133Z,33.60
2017-04-08T05:50:21.900Z,31.90
2017-04-08T05:51:19.673Z,37.41
2017-04-08T05:52:17.677Z,36.63
2017-04-08T05:53:15.476Z,32.49
2017-04-08T05:54:13.313Z,36.99
2017-04-08T05:55:11.817Z,30.79
2017-04-08T05:56:09.630Z,31.59
2017-04-08T05:57:08.158Z,31.59
2017-04-08T05:58:06.009Z,33.91
2017-04-08T05:59:03.781Z,36.90
2017-04-08T06:00:01.614Z,32.49
2017-04-08T06:00:59.437Z,35.91
2017-04-08T06:01:58.043Z,36.19
2017-04-08T06:02:55.841Z,31.49
2017-04-08T06:03:53.614Z,33.11
2017-04-08T06:04:52.133Z,31.07
2017-04-08T06:05:50.657Z,34.97
2017-04-08T06:06:48.416Z,35.01
2017-04-08T06:07:46.933Z,34.03
2017-04-08T06:08:44.729Z,34.40
2017-04-08T06:09:42.504Z,34.56
2017-04-08T06:10:41.051Z,36.39
2017-04-08T06:11:38.834Z,39.10
2017-04-08T06:12:37.364Z,33.53
2017-04-08T06:13:35.147Z,34.29
2017-04-08T06:14:33.729Z,35.33
2017-04-08T06:15:31.525Z,37.83
2017-04-08T06:16:29.337Z,34.81
2017-04-08T06:17:27.872Z,35.06
2017-04-08T06:18:25.657Z,34.11
2017-04-08T06:19:23.441Z,35.40
2017-04-08T06:20:21.217Z,31.16
2017-04-08T06:21:19.006Z,33.37
2017-04-08T06:22:17.468Z,35.63
2017-04-08T06:23:15.241Z,34.97
2017-04-08T06:24:13.026Z,35.06
2017-04-08T06:25:10.828Z,33.36
2017-04-08T06:26:08.646Z,32.34
2017-04-08T06:27:06.460Z,34.99
2017-04-08T06:28:04.915Z,33.49
2017-04-08T06:29:02.694Z,32.64
2017-04-08T06:30:01.242Z,37.04
2017-04-08T06:30:59.021Z,32.07
2017-04-08T06:31:56.857Z,35.10
2017-04-08T06:32:55.437Z,33.26
2017-04-08T06:33:53.896Z,31.86
2017-04-08T06:34:51.677Z,34.23
2017-04-08T06:35:49.477Z,33.56
2017-04-08T06:36:47.364Z,36.80
2017-04-08T06:37:45.173Z,33.70
2017-04-08T06:38:42.956Z,35.30
2017-04-08T06:39:40.753Z,35.90
2017-04-08T06:40:39.305Z,34.39
2017-04-08T06:41:37.113Z,33.76
2017-04-08T06:42:34.934Z,36.43
2017-04-08T06:43:33.461Z,34.64
2017-04-08T06:44:31.305Z,36.33
2017-04-08T06:45:29.093Z,35.20
2017-04-08T06:46:26.905Z,35.20
2017-04-08T06:47:24.822Z,37.76
2017-04-08T06:48:22.601Z,35.57
2017-04-08T06:49:21.224Z,35.21
2017-04-08T06:50:19.777Z,36.09
2017-04-08T06:51:17.606Z,35.40
2017-04-08T06:52:16.192Z,34.34
2017-04-08T06:53:14.242Z,34.09
2017-04-08T06:54:12.070Z,40.23
2017-04-08T06:55:09.936Z,38.71
2017-04-08T06:56:07.753Z,35.74
2017-04-08T06:57:05.554Z,33.79
2017-04-08T06:58:03.389Z,33.60
2017-04-08T06:59:01.245Z,34.66
2017-04-08T06:59:59.705Z,33.34
2017-04-08T07:00:57.687Z,37.10
2017-04-08T07:01:55.484Z,37.03
2017-04-08T07:02:53.302Z,31.47
2017-04-08T07:03:51.108Z,34.24
2017-04-08T07:04:48.905Z,32.99
2017-04-08T07:05:46.727Z,34.21
2017-04-08T07:06:44.658Z,33.49
2017-04-08T07:07:42.477Z,29.60
2017-04-08T07:08:40.386Z,35.56
2017-04-08T07:09:38.181Z,32.87
2017-04-08T07:10:35.972Z,30.26
2017-04-08T07:11:33.813Z,32.44
2017-04-08T07:12:31.621Z,29.84
2017-04-08T07:13:29.412Z,30.56
2017-04-08T07:14:27.257Z,31.99
2017-04-08T07:15:25.080Z,30.09
2017-04-08T07:16:22.934Z,32.50
2017-04-08T07:17:20.721Z,31.79
2017-04-08T07:18:18.533Z,31.60
2017-04-08T07:19:16.365Z,32.71
2017-04-08T07:20:14.180Z,32.06
2017-04-08T07:21:12.649Z,29.91
2017-04-08T07:22:10.475Z,29.31
2017-04-08T07:23:08.352Z,30.46
2017-04-08T07:24:06.173Z,24.74
2017-04-08T07:25:03.981Z,30.84
2017-04-08T07:26:02.510Z,30.99
2017-04-08T07:27:00.313Z,29.61
2017-04-08T07:27:58.139Z,28.71
2017-04-08T07:28:55.937Z,30.46
2017-04-08T07:29:53.737Z,29.31
2017-04-08T07:30:51.591Z,28.37
2017-04-08T07:31:49.473Z,30.44
2017-04-08T07:32:47.339Z,30.40
2017-04-08T07:33:45.871Z,32.40
2017-04-08T07:34:43.685Z,29.54
2017-04-08T07:35:42.239Z,30.86
2017-04-08T07:36:40.709Z,29.16
2017-04-08T07:37:38.589Z,30.14
2017-04-08T07:38:36.534Z,31.13
2017-04-08T07:39:35.104Z,28.26
2017-04-08T07:40:33.577Z,30.66
2017-04-08T07:41:31.401Z,27.51
2017-04-08T07:42:29.217Z,28.31
2017-04-08T07:43:27.010Z,30.20
2017-04-08T07:44:25.759Z,28.84
2017-04-08T07:45:23.642Z,31.11
2017-04-08T07:46:21.490Z,29.01
2017-04-08T07:47:19.346Z,28.50
2017-04-08T07:48:17.144Z,28.13
2017-04-08T07:49:14.980Z,30.34
2017-04-08T07:50:12.871Z,28.57
2017-04-08T07:51:10.746Z,28.03
2017-04-08T07:52:08.555Z,30.77
2017-04-08T07:53:06.395Z,29.87
2017-04-08T07:54:04.189Z,29.11
2017-04-08T07:55:02.747Z,26.89
2017-04-08T07:56:00.677Z,19.07
2017-04-08T07:56:58.595Z,24.90
2017-04-08T07:57:56.417Z,21.53
2017-04-08T07:58:54.248Z,25.27
2017-04-08T07:59:52.062Z,22.21
2017-04-08T08:00:50.030Z,27.43
2017-04-08T08:01:47.891Z,17.23
2017-04-08T08:02:45.798Z,26.33
2017-04-08T08:03:44.369Z,27.34
2017-04-08T08:04:42.164Z,18.77
2017-04-08T08:05:39.945Z,21.26
2017-04-08T08:06:37.729Z,29.17
2017-04-08T08:07:35.545Z,25.70
2017-04-08T08:08:33.629Z,29.77
2017-04-08T08:09:31.449Z,29.69
2017-04-08T08:10:29.257Z,22.51
2017-04-08T08:11:27.082Z,25.33
2017-04-08T08:12:25.066Z,29.69
2017-04-08T08:13:22.874Z,28.21
2017-04-08T08:14:20.698Z,23.50
2017-04-08T08:15:19.176Z,30.77
2017-04-08T08:16:17.743Z,30.57
2017-04-08T08:17:15.600Z,29.96
2017-04-08T08:18:14.181Z,31.64
2017-04-08T08:19:12.725Z,29.07
2017-04-08T08:20:10.526Z,30.37
2017-04-08T08:21:08.338Z,12.41
2017-04-08T08:22:06.118Z,15.33
2017-04-08T08:23:04.723Z,27.07
2017-04-08T08:24:02.545Z,27.13
2017-04-08T08:25:01.078Z,28.77
2017-04-08T08:25:58.902Z,28.21
2017-04-08T08:26:56.787Z,30.27
2017-04-08T08:27:54.585Z,29.70
2017-04-08T08:28:53.169Z,22.00
2017-04-08T08:29:51.720Z,29.30
2017-04-08T08:30:49.950Z,29.83
2017-04-08T08:31:47.749Z,29.10
2017-04-08T08:32:46.381Z,19.69
2017-04-08T08:33:44.182Z,32.69
2017-04-08T08:34:42.743Z,30.33
2017-04-08T08:35:40.557Z,30.64
2017-04-08T08:36:38.361Z,31.09
2017-04-08T08:37:36.901Z,26.50
2017-04-08T08:38:34.709Z,29.19
2017-04-08T08:39:32.514Z,18.80
2017-04-08T08:40:30.326Z,26.66
2017-04-08T08:41:28.111Z,21.13
2017-04-08T08:42:25.917Z,26.67
2017-04-08T08:43:24.483Z,19.86
2017-04-08T08:44:23.039Z,25.30
2017-04-08T08:45:20.816Z,24.83
2017-04-08T08:46:19.361Z,26.44
2017-04-08T08:47:17.163Z,23.66
2017-04-08T08:48:14.947Z,18.63
2017-04-08T08:49:12.753Z,20.87
2017-04-08T08:50:10.552Z,22.19
2017-04-08T08:51:08.353Z,22.14
2017-04-08T08:52:06.201Z,18.60
2017-04-08T08:53:04.676Z,20.59
2017-04-08T08:54:02.473Z,21.90
2017-04-08T08:55:00.277Z,20.99
2017-04-08T08:55:58.754Z,20.60
2017-04-08T08:56:56.541Z,22.27
2017-04-08T08:57:55.123Z,22.69
2017-04-08T08:58:52.940Z,21.64
2017-04-08T08:59:51.384Z,23.03
2017-04-08T09:00:49.185Z,25.76
2017-04-08T09:01:47.751Z,26.59
2017-04-08T09:02:46.325Z,26.40
2017-04-08T09:03:44.129Z,26.13
2017-04-08T09:04:41.913Z,24.10
2017-04-08T09:05:39.690Z,24.04
2017-04-08T09:06:38.246Z,14.11
2017-04-08T09:07:36.022Z,21.97
2017-04-08T09:08:34.574Z,23.47
2017-04-08T09:09:33.016Z,22.64
2017-04-08T09:10:30.785Z,20.13
2017-04-08T09:11:28.549Z,22.16
2017-04-08T09:12:26.997Z,22.49
2017-04-08T09:13:24.940Z,22.36
2017-04-08T09:14:22.751Z,21.04
2017-04-08T09:15:21.278Z,21.41
2017-04-08T09:16:19.083Z,21.73
2017-04-08T09:17:16.877Z,19.87
2017-04-08T09:18:14.646Z,21.07
2017-04-08T09:19:12.426Z,22.67
2017-04-08T09:20:10.222Z,22.49
2017-04-08T09:21:07.994Z,19.31
2017-04-08T09:22:05.813Z,20.59
2017-04-08T09:23:04.362Z,19.09
2017-04-08T09:24:02.181Z,18.20
2017-04-08T09:24:59.946Z,18.27
2017-04-08T09:25:57.725Z,20.21
2017-04-08T09:26:55.527Z,19.73
2017-04-08T09:27:53.333Z,19.86
2017-04-08T09:28:51.828Z,20.31
2017-04-08T09:29:50.357Z,16.19
2017-04-08T09:30:48.148Z,20.94
2017-04-08T09:31:46.679Z,22.51
2017-04-08T09:32:44.484Z,17.46
2017-04-08T09:33:42.336Z,20.60
2017-04-08T09:34:40.870Z,20.46
2017-04-08T09:35:38.638Z,22.04
2017-04-08T09:36:36.451Z,17.67
2017-04-08T09:37:34.230Z,15.66
2017-04-08T09:38:32.038Z,21.24
2017-04-08T09:39:29.825Z,15.29
2017-04-08T09:40:27.596Z,13.71
2017-04-08T09:41:25.409Z,20.24
2017-04-08T09:42:23.183Z,15.07
2017-04-08T09:43:21.030Z,16.40
2017-04-08T09:44:18.857Z,21.53
2017-04-08T09:45:16.665Z,22.11
2017-04-08T09:46:14.441Z,16.51
2017-04-08T09:47:12.239Z,15.31
2017-04-08T09:48:10.017Z,23.39
2017-04-08T09:49:07.821Z,12.24
2017-04-08T09:50:06.369Z,20.99
2017-04-08T09:51:04.173Z,22.30
2017-04-08T09:52:01.967Z,22.31
2017-04-08T09:52:59.789Z,19.40
2017-04-08T09:53:57.577Z,19.99
2017-04-08T09:54:55.391Z,18.16
2017-04-08T09:55:53.929Z,19.43
2017-04-08T09:56:52.377Z,22.43
2017-04-08T09:57:50.328Z,16.29
2017-04-08T09:58:48.146Z,21.06
2017-04-08T09:59:46.006Z,17.67
2017-04-08T10:00:43.817Z,22.43
2017-04-08T10:01:41.601Z,21.83
2017-04-08T10:02:40.129Z,21.61
2017-04-08T10:03:37.944Z,21.43
2017-04-08T10:04:35.742Z,23.00
2017-04-08T10:05:33.525Z,23.43
2017-04-08T10:06:31.978Z,23.64
2017-04-08T10:07:29.782Z,22.59
2017-04-08T10:08:27.566Z,22.41
2017-04-08T10:09:25.421Z,21.63
2017-04-08T10:10:23.203Z,23.77
2017-04-08T10:11:21.014Z,22.54
2017-04-08T10:12:18.840Z,14.61
2017-04-08T10:13:17.383Z,20.37
2017-04-08T10:14:15.201Z,20.17
2017-04-08T10:15:13.021Z,18.74
2017-04-08T10:16:10.870Z,20.66
2017-04-08T10:17:09.323Z,21.97
2017-04-08T10:18:07.138Z,22.10
2017-04-08T10:19:04.974Z,22.27
2017-04-08T10:20:02.828Z,19.96
2017-04-08T10:21:01.384Z,11.20
2017-04-08T10:21:59.204Z,20.19
2017-04-08T10:22:57.020Z,12.33
2017-04-08T10:23:54.852Z,19.07
2017-04-08T10:24:53.410Z,14.59
2017-04-08T10:25:51.234Z,12.99
2017-04-08T10:26:49.061Z,17.10
2017-04-08T10:27:47.021Z,8.17
2017-04-08T10:28:44.793Z,21.41
2017-04-08T10:29:42.621Z,10.81
2017-04-08T10:30:40.466Z,17.87
2017-04-08T10:31:38.310Z,19.50
2017-04-08T10:32:36.756Z,17.14
2017-04-08T10:33:34.565Z,10.79
2017-04-08T10:34:32.421Z,11.80
2017-04-08T10:35:30.266Z,16.83
2017-04-08T10:36:28.851Z,9.01
2017-04-08T10:37:26.637Z,19.51
2017-04-08T10:38:24.475Z,19.66
2017-04-08T10:39:22.320Z,18.57
2017-04-08T10:40:20.124Z,12.74
2017-04-08T10:41:17.989Z,19.10
2017-04-08T10:42:15.833Z,14.56
2017-04-08T10:43:13.608Z,19.11
2017-04-08T10:44:12.074Z,19.33
2017-04-08T10:45:09.893Z,13.24
2017-04-08T10:46:07.710Z,12.17
2017-04-08T10:47:05.498Z,13.76
2017-04-08T10:48:03.353Z,6.76
2017-04-08T10:49:01.248Z,13.24
2017-04-08T10:49:59.049Z,17.83
2017-04-08T10:50:57.095Z,20.89
2017-04-08T10:51:54.957Z,17.80
2017-04-08T10:52:52.762Z,14.47
2017-04-08T10:53:51.437Z,18.37
2017-04-08T10:54:49.251Z,9.03
2017-04-08T10:55:47.089Z,19.69
2017-04-08T10:56:44.941Z,12.50
2017-04-08T10:57:43.498Z,19.14
2017-04-08T10:58:42.053Z,20.57
2017-04-08T10:59:39.867Z,19.36
2017-04-08T11:00:37.709Z,18.93
2017-04-08T11:01:36.253Z,20.63
2017-04-08T11:02:34.149Z,17.40
2017-04-08T11:03:31.921Z,12.14
2017-04-08T11:04:29.701Z,15.61
2017-04-08T11:05:27.474Z,13.26
2017-04-08T11:06:25.280Z,17.93
2017-04-08T11:07:23.089Z,7.59
2017-04-08T11:08:20.885Z,7.27
2017-04-08T11:09:18.700Z,11.76
2017-04-08T11:10:16.640Z,15.96
2017-04-08T11:11:14.497Z,20.37
2017-04-08T11:12:12.294Z,24.76
2017-04-08T11:13:10.818Z,18.89
2017-04-08T11:14:08.621Z,18.34
2017-04-08T11:15:06.397Z,18.81
2017-04-08T11:16:04.225Z,19.74
2017-04-08T11:17:02.003Z,15.63
2017-04-08T11:17:59.785Z,18.30
2017-04-08T11:18:57.565Z,14.57
2017-04-08T11:19:56.041Z,8.13
2017-04-08T11:20:53.908Z,6.79
2017-04-08T11:21:51.713Z,18.26
2017-04-08T11:22:49.489Z,17.44
2017-04-08T11:23:47.304Z,17.23
2017-04-08T11:24:45.082Z,18.10
2017-04-08T11:25:42.853Z,18.63
2017-04-08T11:26:40.693Z,17.11
2017-04-08T11:27:38.501Z,8.93
2017-04-08T11:28:37.054Z,16.96
2017-04-08T11:29:34.858Z,15.49
2017-04-08T11:30:32.661Z,16.19
2017-04-08T11:31:30.501Z,19.07
2017-04-08T11:32:28.972Z,18.54
2017-04-08T11:33:26.801Z,18.93
2017-04-08T11:34:24.576Z,19.93
2017-04-08T11:35:22.391Z,18.89
2017-04-08T11:36:20.182Z,19.26
2017-04-08T11:37:18.487Z,20.26
2017-04-08T11:38:17.029Z,5.61
2017-04-08T11:39:14.814Z,12.83
2017-04-08T11:40:12.613Z,4.81
2017-04-08T11:41:10.454Z,6.39
2017-04-08T11:42:08.305Z,6.20
2017-04-08T11:43:06.104Z,16.67
2017-04-08T11:44:03.893Z,17.03
2017-04-08T11:45:02.434Z,16.36
2017-04-08T11:46:00.233Z,9.21
2017-04-08T11:46:58.769Z,10.51
2017-04-08T11:47:56.557Z,16.29
2017-04-08T11:48:55.077Z,16.57
2017-04-08T11:49:52.854Z,9.21
2017-04-08T11:50:50.637Z,8.69
2017-04-08T11:51:49.225Z,16.66
2017-04-08T11:52:47.078Z,19.19
2017-04-08T11:53:44.840Z,18.80
2017-04-08T11:54:42.640Z,16.84
2017-04-08T11:55:41.178Z,18.94
2017-04-08T11:56:39.006Z,14.46
2017-04-08T11:57:37.534Z,18.36
2017-04-08T11:58:35.325Z,18.90
2017-04-08T11:59:33.126Z,18.53
2017-04-08T12:00:31.029Z,18.76
2017-04-08T12:01:29.613Z,17.59
2017-04-08T12:02:27.514Z,13.01
2017-04-08T12:03:25.459Z,18.36
2017-04-08T12:04:23.241Z,16.17
2017-04-08T12:05:21.094Z,19.29
2017-04-08T12:06:18.933Z,17.69
2017-04-08T12:07:17.388Z,19.64
2017-04-08T12:08:15.322Z,18.43
2017-04-08T12:09:13.850Z,14.21
2017-04-08T12:10:11.631Z,17.57
2017-04-08T12:11:09.435Z,18.83
2017-04-08T12:12:07.333Z,20.84
2017-04-08T12:13:05.157Z,10.73
2017-04-08T12:14:03.012Z,21.06
2017-04-08T12:15:00.826Z,21.99
2017-04-08T12:15:59.372Z,19.80
2017-04-08T12:16:57.197Z,19.57
2017-04-08T12:17:55.009Z,16.53
2017-04-08T12:18:53.524Z,19.71
2017-04-08T12:19:51.318Z,19.00
2017-04-08T12:20:49.105Z,20.79
2017-04-08T12:21:47.637Z,18.31
2017-04-08T12:22:45.626Z,18.66
2017-04-08T12:23:44.165Z,19.90
2017-04-08T12:24:41.962Z,18.09
2017-04-08T12:25:40.532Z,18.79
2017-04-08T12:26:39.071Z,18.24
2017-04-08T12:27:36.860Z,18.81